sensor_id;sensor_type;location;lat;lon;timestamp;P1;durP1;ratioP1;P2;durP2;ratioP2
38264;SDS011;24062;47.480;8.768;2023-11-21T00:01:20;2.80;;;1.00;;
38264;SDS011;24062;47.480;8.768;2023-11-21T00:03:47;3.37;;;1.40;;
38264;SDS011;24062;47.480;8.768;2023-11-21T00:06:14;2.40;;;1.00;;
38264;SDS011;24062;47.480;8.768;2023-11-21T00:08:42;2.67;;;1.17;;
38264;SDS011;24062;47.480;8.768;2023-11-21T00:11:09;2.00;;;0.80;;
38264;SDS011;24062;47.480;8.768;2023-11-21T00:13:36;2.37;;;0.90;;
38264;SDS011;24062;47.480;8.768;2023-11-21T00:16:03;2.43;;;0.90;;
38264;SDS011;24062;47.480;8.768;2023-11-21T00:18:30;1.70;;;0.93;;
38264;SDS011;24062;47.480;8.768;2023-11-21T00:20:57;2.17;;;1.13;;
38264;SDS011;24062;47.480;8.768;2023-11-21T00:23:24;2.20;;;1.00;;
38264;SDS011;24062;47.480;8.768;2023-11-21T00:25:52;2.23;;;0.90;;
38264;SDS011;24062;47.480;8.768;2023-11-21T00:28:19;2.67;;;0.90;;
38264;SDS011;24062;47.480;8.768;2023-11-21T00:30:47;2.33;;;1.23;;
38264;SDS011;24062;47.480;8.768;2023-11-21T00:33:14;1.60;;;0.90;;
38264;SDS011;24062;47.480;8.768;2023-11-21T00:35:41;1.73;;;0.77;;
38264;SDS011;24062;47.480;8.768;2023-11-21T00:38:08;1.70;;;1.00;;
38264;SDS011;24062;47.480;8.768;2023-11-21T00:40:35;1.73;;;0.83;;
38264;SDS011;24062;47.480;8.768;2023-11-21T00:43:04;1.40;;;0.63;;
38264;SDS011;24062;47.480;8.768;2023-11-21T00:45:31;1.77;;;0.80;;
38264;SDS011;24062;47.480;8.768;2023-11-21T00:47:58;1.83;;;0.90;;
38264;SDS011;24062;47.480;8.768;2023-11-21T00:50:25;2.87;;;1.20;;
38264;SDS011;24062;47.480;8.768;2023-11-21T00:52:52;2.30;;;0.80;;
38264;SDS011;24062;47.480;8.768;2023-11-21T00:55:19;1.87;;;0.77;;
38264;SDS011;24062;47.480;8.768;2023-11-21T00:57:46;1.90;;;0.70;;
38264;SDS011;24062;47.480;8.768;2023-11-21T01:00:14;1.93;;;0.70;;
38264;SDS011;24062;47.480;8.768;2023-11-21T01:02:42;1.97;;;0.97;;
38264;SDS011;24062;47.480;8.768;2023-11-21T01:05:10;1.40;;;0.70;;
38264;SDS011;24062;47.480;8.768;2023-11-21T01:07:37;2.57;;;1.20;;
38264;SDS011;24062;47.480;8.768;2023-11-21T01:10:05;2.30;;;1.00;;
38264;SDS011;24062;47.480;8.768;2023-11-21T01:12:33;1.50;;;0.80;;
38264;SDS011;24062;47.480;8.768;2023-11-21T01:15:01;1.90;;;0.93;;
38264;SDS011;24062;47.480;8.768;2023-11-21T01:17:29;1.47;;;0.60;;
38264;SDS011;24062;47.480;8.768;2023-11-21T01:19:56;2.23;;;0.80;;
38264;SDS011;24062;47.480;8.768;2023-11-21T01:22:24;1.50;;;0.90;;
38264;SDS011;24062;47.480;8.768;2023-11-21T01:24:51;1.57;;;0.60;;
38264;SDS011;24062;47.480;8.768;2023-11-21T01:27:18;1.50;;;0.70;;
38264;SDS011;24062;47.480;8.768;2023-11-21T01:29:45;1.70;;;0.80;;
38264;SDS011;24062;47.480;8.768;2023-11-21T01:32:12;1.70;;;0.80;;
38264;SDS011;24062;47.480;8.768;2023-11-21T01:34:40;1.63;;;0.73;;
38264;SDS011;24062;47.480;8.768;2023-11-21T01:37:07;1.70;;;1.00;;
38264;SDS011;24062;47.480;8.768;2023-11-21T01:39:37;2.00;;;0.80;;
38264;SDS011;24062;47.480;8.768;2023-11-21T01:42:04;1.60;;;0.73;;
38264;SDS011;24062;47.480;8.768;2023-11-21T01:44:32;1.40;;;0.60;;
38264;SDS011;24062;47.480;8.768;2023-11-21T01:46:59;1.80;;;0.80;;
38264;SDS011;24062;47.480;8.768;2023-11-21T01:49:30;1.70;;;0.87;;
38264;SDS011;24062;47.480;8.768;2023-11-21T01:51:58;1.60;;;0.90;;
38264;SDS011;24062;47.480;8.768;2023-11-21T01:54:26;1.70;;;0.77;;
38264;SDS011;24062;47.480;8.768;2023-11-21T01:56:56;1.53;;;0.67;;
38264;SDS011;24062;47.480;8.768;2023-11-21T01:59:28;2.13;;;0.90;;
38264;SDS011;24062;47.480;8.768;2023-11-21T02:02:00;1.70;;;0.80;;
38264;SDS011;24062;47.480;8.768;2023-11-21T02:04:27;1.50;;;0.70;;
38264;SDS011;24062;47.480;8.768;2023-11-21T02:06:54;2.27;;;0.70;;
38264;SDS011;24062;47.480;8.768;2023-11-21T02:09:25;1.47;;;0.70;;
38264;SDS011;24062;47.480;8.768;2023-11-21T02:11:52;1.70;;;0.80;;
38264;SDS011;24062;47.480;8.768;2023-11-21T02:14:20;1.60;;;0.70;;
38264;SDS011;24062;47.480;8.768;2023-11-21T02:16:48;1.40;;;0.60;;
38264;SDS011;24062;47.480;8.768;2023-11-21T02:19:17;1.63;;;0.77;;
38264;SDS011;24062;47.480;8.768;2023-11-21T02:21:47;1.93;;;0.70;;
38264;SDS011;24062;47.480;8.768;2023-11-21T02:24:18;1.93;;;0.70;;
38264;SDS011;24062;47.480;8.768;2023-11-21T02:26:46;2.00;;;0.87;;
38264;SDS011;24062;47.480;8.768;2023-11-21T02:29:13;1.80;;;0.70;;
38264;SDS011;24062;47.480;8.768;2023-11-21T02:31:43;2.73;;;0.60;;
38264;SDS011;24062;47.480;8.768;2023-11-21T02:34:13;1.40;;;0.57;;
38264;SDS011;24062;47.480;8.768;2023-11-21T02:36:40;1.60;;;0.67;;
38264;SDS011;24062;47.480;8.768;2023-11-21T02:39:08;1.67;;;0.60;;
38264;SDS011;24062;47.480;8.768;2023-11-21T02:41:37;1.63;;;0.60;;
38264;SDS011;24062;47.480;8.768;2023-11-21T02:44:05;1.50;;;0.60;;
38264;SDS011;24062;47.480;8.768;2023-11-21T02:46:32;1.80;;;0.90;;
38264;SDS011;24062;47.480;8.768;2023-11-21T02:49:00;1.77;;;0.87;;
38264;SDS011;24062;47.480;8.768;2023-11-21T02:51:27;1.80;;;0.70;;
38264;SDS011;24062;47.480;8.768;2023-11-21T02:53:54;1.50;;;0.60;;
38264;SDS011;24062;47.480;8.768;2023-11-21T02:56:23;1.63;;;0.70;;
38264;SDS011;24062;47.480;8.768;2023-11-21T02:58:52;2.50;;;0.80;;
38264;SDS011;24062;47.480;8.768;2023-11-21T03:01:21;1.57;;;0.80;;
38264;SDS011;24062;47.480;8.768;2023-11-21T03:03:49;1.60;;;0.60;;
38264;SDS011;24062;47.480;8.768;2023-11-21T03:06:16;1.80;;;0.70;;
38264;SDS011;24062;47.480;8.768;2023-11-21T03:08:43;1.83;;;0.80;;
38264;SDS011;24062;47.480;8.768;2023-11-21T03:11:10;1.40;;;0.60;;
38264;SDS011;24062;47.480;8.768;2023-11-21T03:13:38;1.50;;;0.80;;
38264;SDS011;24062;47.480;8.768;2023-11-21T03:16:08;1.40;;;0.60;;
38264;SDS011;24062;47.480;8.768;2023-11-21T03:18:35;2.03;;;0.53;;
38264;SDS011;24062;47.480;8.768;2023-11-21T03:21:02;1.50;;;0.70;;
38264;SDS011;24062;47.480;8.768;2023-11-21T03:23:29;1.40;;;0.50;;
38264;SDS011;24062;47.480;8.768;2023-11-21T03:25:56;1.30;;;0.60;;
38264;SDS011;24062;47.480;8.768;2023-11-21T03:28:24;2.17;;;0.50;;
38264;SDS011;24062;47.480;8.768;2023-11-21T03:30:52;2.13;;;0.70;;
38264;SDS011;24062;47.480;8.768;2023-11-21T03:33:20;1.37;;;0.60;;
38264;SDS011;24062;47.480;8.768;2023-11-21T03:35:47;1.73;;;0.50;;
38264;SDS011;24062;47.480;8.768;2023-11-21T03:38:14;1.57;;;0.63;;
38264;SDS011;24062;47.480;8.768;2023-11-21T03:40:42;1.40;;;0.60;;
38264;SDS011;24062;47.480;8.768;2023-11-21T03:43:09;1.80;;;0.70;;
38264;SDS011;24062;47.480;8.768;2023-11-21T03:45:36;1.50;;;0.60;;
38264;SDS011;24062;47.480;8.768;2023-11-21T03:48:03;1.70;;;0.67;;
38264;SDS011;24062;47.480;8.768;2023-11-21T03:50:31;1.47;;;0.60;;
38264;SDS011;24062;47.480;8.768;2023-11-21T03:52:58;1.57;;;0.60;;
38264;SDS011;24062;47.480;8.768;2023-11-21T03:55:25;1.50;;;0.60;;
38264;SDS011;24062;47.480;8.768;2023-11-21T03:57:52;1.60;;;0.53;;
38264;SDS011;24062;47.480;8.768;2023-11-21T04:00:19;1.40;;;0.50;;
38264;SDS011;24062;47.480;8.768;2023-11-21T04:02:47;1.40;;;0.50;;
38264;SDS011;24062;47.480;8.768;2023-11-21T04:05:13;1.67;;;0.63;;
38264;SDS011;24062;47.480;8.768;2023-11-21T04:07:42;1.77;;;0.50;;
38264;SDS011;24062;47.480;8.768;2023-11-21T04:10:09;1.30;;;0.50;;
38264;SDS011;24062;47.480;8.768;2023-11-21T04:12:38;1.47;;;0.50;;
38264;SDS011;24062;47.480;8.768;2023-11-21T04:15:06;2.90;;;0.60;;
38264;SDS011;24062;47.480;8.768;2023-11-21T04:17:34;1.40;;;0.60;;
38264;SDS011;24062;47.480;8.768;2023-11-21T04:20:02;1.47;;;0.50;;
38264;SDS011;24062;47.480;8.768;2023-11-21T04:22:33;1.50;;;0.60;;
38264;SDS011;24062;47.480;8.768;2023-11-21T04:25:01;1.90;;;0.60;;
38264;SDS011;24062;47.480;8.768;2023-11-21T04:27:29;1.20;;;0.47;;
38264;SDS011;24062;47.480;8.768;2023-11-21T04:29:56;1.50;;;0.60;;
38264;SDS011;24062;47.480;8.768;2023-11-21T04:32:22;1.40;;;0.50;;
38264;SDS011;24062;47.480;8.768;2023-11-21T04:34:49;1.40;;;0.50;;
38264;SDS011;24062;47.480;8.768;2023-11-21T04:37:16;1.30;;;0.50;;
38264;SDS011;24062;47.480;8.768;2023-11-21T04:39:43;1.27;;;0.43;;
38264;SDS011;24062;47.480;8.768;2023-11-21T04:42:12;1.50;;;0.67;;
38264;SDS011;24062;47.480;8.768;2023-11-21T04:44:39;2.03;;;0.60;;
38264;SDS011;24062;47.480;8.768;2023-11-21T04:47:06;1.27;;;0.50;;
38264;SDS011;24062;47.480;8.768;2023-11-21T04:49:33;1.40;;;0.60;;
38264;SDS011;24062;47.480;8.768;2023-11-21T04:52:00;1.83;;;0.60;;
38264;SDS011;24062;47.480;8.768;2023-11-21T04:54:28;1.73;;;0.70;;
38264;SDS011;24062;47.480;8.768;2023-11-21T04:56:56;1.40;;;0.60;;
38264;SDS011;24062;47.480;8.768;2023-11-21T04:59:25;2.50;;;0.70;;
38264;SDS011;24062;47.480;8.768;2023-11-21T05:01:52;2.00;;;0.70;;
38264;SDS011;24062;47.480;8.768;2023-11-21T05:04:20;1.23;;;0.40;;
38264;SDS011;24062;47.480;8.768;2023-11-21T05:06:47;1.40;;;0.53;;
38264;SDS011;24062;47.480;8.768;2023-11-21T05:09:14;1.30;;;0.43;;
38264;SDS011;24062;47.480;8.768;2023-11-21T05:11:41;1.30;;;0.50;;
38264;SDS011;24062;47.480;8.768;2023-11-21T05:14:08;1.57;;;0.70;;
38264;SDS011;24062;47.480;8.768;2023-11-21T05:16:37;1.37;;;0.50;;
38264;SDS011;24062;47.480;8.768;2023-11-21T05:19:04;2.10;;;0.70;;
38264;SDS011;24062;47.480;8.768;2023-11-21T05:21:31;1.50;;;0.73;;
38264;SDS011;24062;47.480;8.768;2023-11-21T05:23:58;1.20;;;0.47;;
38264;SDS011;24062;47.480;8.768;2023-11-21T05:26:25;1.50;;;0.67;;
38264;SDS011;24062;47.480;8.768;2023-11-21T05:28:52;1.40;;;0.80;;
38264;SDS011;24062;47.480;8.768;2023-11-21T05:31:19;1.77;;;0.60;;
38264;SDS011;24062;47.480;8.768;2023-11-21T05:33:48;1.57;;;0.53;;
38264;SDS011;24062;47.480;8.768;2023-11-21T05:36:15;1.47;;;0.50;;
38264;SDS011;24062;47.480;8.768;2023-11-21T05:38:42;1.30;;;0.50;;
38264;SDS011;24062;47.480;8.768;2023-11-21T05:41:09;1.27;;;0.43;;
38264;SDS011;24062;47.480;8.768;2023-11-21T05:43:38;1.40;;;0.60;;
38264;SDS011;24062;47.480;8.768;2023-11-21T05:46:05;1.33;;;0.50;;
38264;SDS011;24062;47.480;8.768;2023-11-21T05:48:34;1.50;;;0.70;;
38264;SDS011;24062;47.480;8.768;2023-11-21T05:51:04;1.27;;;0.50;;
38264;SDS011;24062;47.480;8.768;2023-11-21T05:53:31;3.00;;;0.57;;
38264;SDS011;24062;47.480;8.768;2023-11-21T05:55:58;1.40;;;0.60;;
38264;SDS011;24062;47.480;8.768;2023-11-21T05:58:25;1.40;;;0.50;;
38264;SDS011;24062;47.480;8.768;2023-11-21T06:00:52;1.57;;;0.50;;
38264;SDS011;24062;47.480;8.768;2023-11-21T06:03:19;1.37;;;0.50;;
38264;SDS011;24062;47.480;8.768;2023-11-21T06:05:46;1.37;;;0.50;;
38264;SDS011;24062;47.480;8.768;2023-11-21T06:08:14;2.10;;;0.57;;
38264;SDS011;24062;47.480;8.768;2023-11-21T06:10:42;1.43;;;0.40;;
38264;SDS011;24062;47.480;8.768;2023-11-21T06:13:09;2.27;;;0.50;;
38264;SDS011;24062;47.480;8.768;2023-11-21T06:15:36;1.70;;;0.50;;
38264;SDS011;24062;47.480;8.768;2023-11-21T06:18:04;1.30;;;0.50;;
38264;SDS011;24062;47.480;8.768;2023-11-21T06:20:35;2.10;;;0.60;;
38264;SDS011;24062;47.480;8.768;2023-11-21T06:23:03;1.70;;;0.70;;
38264;SDS011;24062;47.480;8.768;2023-11-21T06:25:32;1.50;;;0.50;;
38264;SDS011;24062;47.480;8.768;2023-11-21T06:28:01;1.33;;;0.50;;
38264;SDS011;24062;47.480;8.768;2023-11-21T06:30:28;1.80;;;0.60;;
38264;SDS011;24062;47.480;8.768;2023-11-21T06:32:55;1.70;;;0.57;;
38264;SDS011;24062;47.480;8.768;2023-11-21T06:35:22;1.40;;;0.60;;
38264;SDS011;24062;47.480;8.768;2023-11-21T06:37:49;1.60;;;0.70;;
38264;SDS011;24062;47.480;8.768;2023-11-21T06:40:17;1.83;;;0.60;;
38264;SDS011;24062;47.480;8.768;2023-11-21T06:42:46;2.87;;;0.87;;
38264;SDS011;24062;47.480;8.768;2023-11-21T06:45:13;2.23;;;0.60;;
38264;SDS011;24062;47.480;8.768;2023-11-21T06:47:41;1.87;;;0.50;;
38264;SDS011;24062;47.480;8.768;2023-11-21T06:50:08;6.30;;;0.60;;
38264;SDS011;24062;47.480;8.768;2023-11-21T06:52:35;1.50;;;0.53;;
38264;SDS011;24062;47.480;8.768;2023-11-21T06:55:02;3.10;;;0.50;;
38264;SDS011;24062;47.480;8.768;2023-11-21T06:57:30;1.50;;;0.63;;
38264;SDS011;24062;47.480;8.768;2023-11-21T06:59:59;1.60;;;0.70;;
38264;SDS011;24062;47.480;8.768;2023-11-21T07:02:26;1.73;;;0.50;;
38264;SDS011;24062;47.480;8.768;2023-11-21T07:04:53;1.40;;;0.50;;
38264;SDS011;24062;47.480;8.768;2023-11-21T07:07:20;1.43;;;0.77;;
38264;SDS011;24062;47.480;8.768;2023-11-21T07:09:47;1.60;;;0.40;;
38264;SDS011;24062;47.480;8.768;2023-11-21T07:12:14;1.40;;;0.50;;
38264;SDS011;24062;47.480;8.768;2023-11-21T07:14:41;1.40;;;0.50;;
38264;SDS011;24062;47.480;8.768;2023-11-21T07:17:11;3.33;;;0.57;;
38264;SDS011;24062;47.480;8.768;2023-11-21T07:19:38;1.50;;;0.50;;
38264;SDS011;24062;47.480;8.768;2023-11-21T07:22:06;1.40;;;0.60;;
38264;SDS011;24062;47.480;8.768;2023-11-21T07:24:34;3.10;;;0.67;;
38264;SDS011;24062;47.480;8.768;2023-11-21T07:27:01;1.30;;;0.50;;
38264;SDS011;24062;47.480;8.768;2023-11-21T07:29:29;1.17;;;0.50;;
38264;SDS011;24062;47.480;8.768;2023-11-21T07:31:56;1.77;;;0.50;;
38264;SDS011;24062;47.480;8.768;2023-11-21T07:34:25;1.67;;;0.50;;
38264;SDS011;24062;47.480;8.768;2023-11-21T07:36:51;1.40;;;0.60;;
38264;SDS011;24062;47.480;8.768;2023-11-21T07:39:18;1.30;;;0.60;;
38264;SDS011;24062;47.480;8.768;2023-11-21T07:41:46;1.53;;;0.53;;
38264;SDS011;24062;47.480;8.768;2023-11-21T07:44:15;1.30;;;0.50;;
38264;SDS011;24062;47.480;8.768;2023-11-21T07:46:43;1.90;;;0.57;;
38264;SDS011;24062;47.480;8.768;2023-11-21T07:49:10;1.40;;;0.50;;
38264;SDS011;24062;47.480;8.768;2023-11-21T07:51:41;1.43;;;0.50;;
38264;SDS011;24062;47.480;8.768;2023-11-21T07:54:08;1.40;;;0.50;;
38264;SDS011;24062;47.480;8.768;2023-11-21T07:56:36;1.43;;;0.40;;
38264;SDS011;24062;47.480;8.768;2023-11-21T07:59:03;1.87;;;0.70;;
38264;SDS011;24062;47.480;8.768;2023-11-21T08:01:30;1.23;;;0.53;;
38264;SDS011;24062;47.480;8.768;2023-11-21T08:03:57;1.50;;;0.50;;
38264;SDS011;24062;47.480;8.768;2023-11-21T08:06:28;1.70;;;0.70;;
38264;SDS011;24062;47.480;8.768;2023-11-21T08:08:57;1.30;;;0.50;;
38264;SDS011;24062;47.480;8.768;2023-11-21T08:11:24;1.20;;;0.40;;
38264;SDS011;24062;47.480;8.768;2023-11-21T08:13:51;1.57;;;0.57;;
38264;SDS011;24062;47.480;8.768;2023-11-21T08:16:18;1.30;;;0.50;;
38264;SDS011;24062;47.480;8.768;2023-11-21T08:18:45;1.30;;;0.40;;
38264;SDS011;24062;47.480;8.768;2023-11-21T08:21:12;1.60;;;0.50;;
38264;SDS011;24062;47.480;8.768;2023-11-21T08:23:39;1.40;;;0.50;;
38264;SDS011;24062;47.480;8.768;2023-11-21T08:26:08;1.23;;;0.50;;
38264;SDS011;24062;47.480;8.768;2023-11-21T08:28:35;1.77;;;0.67;;
38264;SDS011;24062;47.480;8.768;2023-11-21T08:31:01;1.60;;;0.50;;
38264;SDS011;24062;47.480;8.768;2023-11-21T08:33:29;1.20;;;0.50;;
38264;SDS011;24062;47.480;8.768;2023-11-21T08:35:56;1.10;;;0.40;;
38264;SDS011;24062;47.480;8.768;2023-11-21T08:38:23;1.33;;;0.53;;
38264;SDS011;24062;47.480;8.768;2023-11-21T08:40:50;1.37;;;0.50;;
38264;SDS011;24062;47.480;8.768;2023-11-21T08:43:18;1.50;;;0.43;;
38264;SDS011;24062;47.480;8.768;2023-11-21T08:45:45;1.37;;;0.60;;
38264;SDS011;24062;47.480;8.768;2023-11-21T08:48:12;1.83;;;0.60;;
38264;SDS011;24062;47.480;8.768;2023-11-21T08:50:39;1.40;;;0.50;;
38264;SDS011;24062;47.480;8.768;2023-11-21T08:53:06;1.50;;;0.50;;
38264;SDS011;24062;47.480;8.768;2023-11-21T08:55:33;1.30;;;0.60;;
38264;SDS011;24062;47.480;8.768;2023-11-21T08:58:02;1.20;;;0.43;;
38264;SDS011;24062;47.480;8.768;2023-11-21T09:00:32;1.10;;;0.40;;
38264;SDS011;24062;47.480;8.768;2023-11-21T09:02:59;1.40;;;0.50;;
38264;SDS011;24062;47.480;8.768;2023-11-21T09:05:27;1.40;;;0.50;;
38264;SDS011;24062;47.480;8.768;2023-11-21T09:07:55;1.20;;;0.50;;
38264;SDS011;24062;47.480;8.768;2023-11-21T09:10:22;1.53;;;0.50;;
38264;SDS011;24062;47.480;8.768;2023-11-21T09:12:50;1.50;;;0.50;;
38264;SDS011;24062;47.480;8.768;2023-11-21T09:15:18;1.60;;;0.50;;
38264;SDS011;24062;47.480;8.768;2023-11-21T09:17:46;1.43;;;0.40;;
38264;SDS011;24062;47.480;8.768;2023-11-21T09:20:14;1.47;;;0.50;;
38264;SDS011;24062;47.480;8.768;2023-11-21T09:22:41;1.30;;;0.40;;
38264;SDS011;24062;47.480;8.768;2023-11-21T09:25:09;1.40;;;0.47;;
38264;SDS011;24062;47.480;8.768;2023-11-21T09:27:37;1.10;;;0.40;;
38264;SDS011;24062;47.480;8.768;2023-11-21T09:30:05;1.40;;;0.53;;
38264;SDS011;24062;47.480;8.768;2023-11-21T09:32:35;1.50;;;0.40;;
38264;SDS011;24062;47.480;8.768;2023-11-21T09:35:04;1.30;;;0.50;;
38264;SDS011;24062;47.480;8.768;2023-11-21T09:37:33;1.30;;;0.50;;
38264;SDS011;24062;47.480;8.768;2023-11-21T09:40:03;1.70;;;0.50;;
38264;SDS011;24062;47.480;8.768;2023-11-21T09:42:38;1.40;;;0.50;;
38264;SDS011;24062;47.480;8.768;2023-11-21T09:45:11;1.30;;;0.50;;
38264;SDS011;24062;47.480;8.768;2023-11-21T09:47:43;1.23;;;0.50;;
38264;SDS011;24062;47.480;8.768;2023-11-21T09:50:11;1.20;;;0.50;;
38264;SDS011;24062;47.480;8.768;2023-11-21T09:52:44;1.20;;;0.50;;
38264;SDS011;24062;47.480;8.768;2023-11-21T09:55:18;1.10;;;0.40;;
38264;SDS011;24062;47.480;8.768;2023-11-21T09:57:48;1.63;;;0.60;;
38264;SDS011;24062;47.480;8.768;2023-11-21T10:00:15;2.50;;;0.67;;
38264;SDS011;24062;47.480;8.768;2023-11-21T10:02:45;1.40;;;0.50;;
38264;SDS011;24062;47.480;8.768;2023-11-21T10:05:16;1.30;;;0.40;;
38264;SDS011;24062;47.480;8.768;2023-11-21T10:07:44;1.67;;;0.50;;
38264;SDS011;24062;47.480;8.768;2023-11-21T10:10:13;1.20;;;0.40;;
38264;SDS011;24062;47.480;8.768;2023-11-21T10:12:44;1.30;;;0.50;;
38264;SDS011;24062;47.480;8.768;2023-11-21T10:15:18;1.50;;;0.60;;
38264;SDS011;24062;47.480;8.768;2023-11-21T10:17:48;1.10;;;0.40;;
38264;SDS011;24062;47.480;8.768;2023-11-21T10:20:16;1.27;;;0.50;;
38264;SDS011;24062;47.480;8.768;2023-11-21T10:22:44;1.13;;;0.40;;
38264;SDS011;24062;47.480;8.768;2023-11-21T10:25:12;1.20;;;0.43;;
38264;SDS011;24062;47.480;8.768;2023-11-21T10:27:40;1.50;;;0.50;;
38264;SDS011;24062;47.480;8.768;2023-11-21T10:30:08;1.40;;;0.50;;
38264;SDS011;24062;47.480;8.768;2023-11-21T10:32:37;1.20;;;0.40;;
38264;SDS011;24062;47.480;8.768;2023-11-21T10:35:05;1.60;;;0.70;;
38264;SDS011;24062;47.480;8.768;2023-11-21T10:37:36;1.20;;;0.50;;
38264;SDS011;24062;47.480;8.768;2023-11-21T10:40:05;1.20;;;0.47;;
38264;SDS011;24062;47.480;8.768;2023-11-21T10:42:37;1.60;;;0.57;;
38264;SDS011;24062;47.480;8.768;2023-11-21T10:45:04;1.27;;;0.50;;
38264;SDS011;24062;47.480;8.768;2023-11-21T10:47:37;1.20;;;0.50;;
38264;SDS011;24062;47.480;8.768;2023-11-21T10:50:05;1.30;;;0.57;;
38264;SDS011;24062;47.480;8.768;2023-11-21T10:52:37;1.30;;;0.40;;
38264;SDS011;24062;47.480;8.768;2023-11-21T10:55:15;1.33;;;0.53;;
38264;SDS011;24062;47.480;8.768;2023-11-21T10:57:43;1.20;;;0.50;;
38264;SDS011;24062;47.480;8.768;2023-11-21T11:00:14;1.60;;;0.70;;
38264;SDS011;24062;47.480;8.768;2023-11-21T11:02:45;1.30;;;0.50;;
38264;SDS011;24062;47.480;8.768;2023-11-21T11:05:14;1.27;;;0.40;;
38264;SDS011;24062;47.480;8.768;2023-11-21T11:07:46;1.20;;;0.50;;
38264;SDS011;24062;47.480;8.768;2023-11-21T11:10:17;1.20;;;0.40;;
38264;SDS011;24062;47.480;8.768;2023-11-21T11:12:46;1.40;;;0.47;;
38264;SDS011;24062;47.480;8.768;2023-11-21T11:15:13;1.20;;;0.40;;
38264;SDS011;24062;47.480;8.768;2023-11-21T11:17:42;1.37;;;0.60;;
38264;SDS011;24062;47.480;8.768;2023-11-21T11:20:11;1.30;;;0.60;;
38264;SDS011;24062;47.480;8.768;2023-11-21T11:22:42;1.10;;;0.40;;
38264;SDS011;24062;47.480;8.768;2023-11-21T11:25:27;1.30;;;0.43;;
38264;SDS011;24062;47.480;8.768;2023-11-21T11:28:06;1.60;;;0.60;;
38264;SDS011;24062;47.480;8.768;2023-11-21T11:30:39;1.10;;;0.40;;
38264;SDS011;24062;47.480;8.768;2023-11-21T11:33:30;1.17;;;0.40;;
38264;SDS011;24062;47.480;8.768;2023-11-21T11:36:03;1.37;;;0.50;;
38264;SDS011;24062;47.480;8.768;2023-11-21T11:38:33;1.27;;;0.40;;
38264;SDS011;24062;47.480;8.768;2023-11-21T11:41:03;1.20;;;0.50;;
38264;SDS011;24062;47.480;8.768;2023-11-21T11:43:31;1.10;;;0.40;;
38264;SDS011;24062;47.480;8.768;2023-11-21T11:46:05;3.30;;;0.50;;
38264;SDS011;24062;47.480;8.768;2023-11-21T11:48:34;1.20;;;0.40;;
38264;SDS011;24062;47.480;8.768;2023-11-21T11:51:06;1.10;;;0.40;;
38264;SDS011;24062;47.480;8.768;2023-11-21T11:53:37;1.30;;;0.40;;
38264;SDS011;24062;47.480;8.768;2023-11-21T11:56:21;1.20;;;0.50;;
38264;SDS011;24062;47.480;8.768;2023-11-21T11:58:53;1.57;;;0.50;;
38264;SDS011;24062;47.480;8.768;2023-11-21T12:01:21;1.40;;;0.50;;
38264;SDS011;24062;47.480;8.768;2023-11-21T12:06:56;1.30;;;0.43;;
38264;SDS011;24062;47.480;8.768;2023-11-21T12:09:27;1.27;;;0.40;;
38264;SDS011;24062;47.480;8.768;2023-11-21T12:11:58;1.10;;;0.40;;
38264;SDS011;24062;47.480;8.768;2023-11-21T12:14:25;1.20;;;0.40;;
38264;SDS011;24062;47.480;8.768;2023-11-21T12:57:12;1.17;;;0.40;;
38264;SDS011;24062;47.480;8.768;2023-11-21T12:59:39;1.40;;;0.50;;
38264;SDS011;24062;47.480;8.768;2023-11-21T13:02:07;1.20;;;0.50;;
38264;SDS011;24062;47.480;8.768;2023-11-21T13:04:35;1.20;;;0.40;;
38264;SDS011;24062;47.480;8.768;2023-11-21T13:07:05;1.30;;;0.40;;
38264;SDS011;24062;47.480;8.768;2023-11-21T13:09:38;1.30;;;0.50;;
38264;SDS011;24062;47.480;8.768;2023-11-21T13:12:06;1.23;;;0.50;;
38264;SDS011;24062;47.480;8.768;2023-11-21T13:14:36;1.30;;;0.40;;
38264;SDS011;24062;47.480;8.768;2023-11-21T13:17:02;1.20;;;0.50;;
38264;SDS011;24062;47.480;8.768;2023-11-21T13:19:30;1.30;;;0.50;;
38264;SDS011;24062;47.480;8.768;2023-11-21T13:21:57;1.20;;;0.50;;
38264;SDS011;24062;47.480;8.768;2023-11-21T13:24:27;1.10;;;0.40;;
38264;SDS011;24062;47.480;8.768;2023-11-21T13:26:53;1.40;;;0.50;;
38264;SDS011;24062;47.480;8.768;2023-11-21T13:29:20;1.10;;;0.40;;
38264;SDS011;24062;47.480;8.768;2023-11-21T13:31:49;1.10;;;0.40;;
38264;SDS011;24062;47.480;8.768;2023-11-21T13:34:18;1.20;;;0.50;;
38264;SDS011;24062;47.480;8.768;2023-11-21T13:36:47;1.17;;;0.40;;
38264;SDS011;24062;47.480;8.768;2023-11-21T13:39:17;1.10;;;0.40;;
38264;SDS011;24062;47.480;8.768;2023-11-21T13:41:46;1.10;;;0.40;;
38264;SDS011;24062;47.480;8.768;2023-11-21T13:44:15;1.13;;;0.40;;
38264;SDS011;24062;47.480;8.768;2023-11-21T13:46:52;1.30;;;0.50;;
38264;SDS011;24062;47.480;8.768;2023-11-21T13:49:21;1.30;;;0.57;;
38264;SDS011;24062;47.480;8.768;2023-11-21T13:51:49;1.30;;;0.40;;
38264;SDS011;24062;47.480;8.768;2023-11-21T13:54:20;1.30;;;0.50;;
38264;SDS011;24062;47.480;8.768;2023-11-21T13:56:50;1.10;;;0.40;;
38264;SDS011;24062;47.480;8.768;2023-11-21T13:59:16;1.10;;;0.40;;
38264;SDS011;24062;47.480;8.768;2023-11-21T14:01:46;1.50;;;0.50;;
38264;SDS011;24062;47.480;8.768;2023-11-21T14:04:26;1.10;;;0.40;;
38264;SDS011;24062;47.480;8.768;2023-11-21T14:07:18;1.10;;;0.40;;
38264;SDS011;24062;47.480;8.768;2023-11-21T14:09:55;1.10;;;0.40;;
38264;SDS011;24062;47.480;8.768;2023-11-21T14:12:23;1.20;;;0.40;;
38264;SDS011;24062;47.480;8.768;2023-11-21T14:14:50;1.40;;;0.50;;
38264;SDS011;24062;47.480;8.768;2023-11-21T14:17:17;1.20;;;0.50;;
38264;SDS011;24062;47.480;8.768;2023-11-21T14:19:48;1.37;;;0.50;;
38264;SDS011;24062;47.480;8.768;2023-11-21T14:22:15;1.10;;;0.40;;
38264;SDS011;24062;47.480;8.768;2023-11-21T14:24:42;1.40;;;0.70;;
38264;SDS011;24062;47.480;8.768;2023-11-21T14:27:12;1.33;;;0.50;;
38264;SDS011;24062;47.480;8.768;2023-11-21T14:29:40;1.10;;;0.40;;
38264;SDS011;24062;47.480;8.768;2023-11-21T14:32:09;1.20;;;0.50;;
38264;SDS011;24062;47.480;8.768;2023-11-21T14:34:36;1.20;;;0.50;;
38264;SDS011;24062;47.480;8.768;2023-11-21T14:37:05;1.20;;;0.50;;
38264;SDS011;24062;47.480;8.768;2023-11-21T14:39:32;1.20;;;0.50;;
38264;SDS011;24062;47.480;8.768;2023-11-21T14:42:05;1.20;;;0.40;;
38264;SDS011;24062;47.480;8.768;2023-11-21T14:44:33;1.17;;;0.40;;
38264;SDS011;24062;47.480;8.768;2023-11-21T14:47:03;1.20;;;0.50;;
38264;SDS011;24062;47.480;8.768;2023-11-21T14:49:37;1.20;;;0.40;;
38264;SDS011;24062;47.480;8.768;2023-11-21T14:52:18;1.20;;;0.60;;
38264;SDS011;24062;47.480;8.768;2023-11-21T14:54:58;1.30;;;0.43;;
38264;SDS011;24062;47.480;8.768;2023-11-21T14:57:45;1.40;;;0.40;;
38264;SDS011;24062;47.480;8.768;2023-11-21T15:00:15;1.10;;;0.40;;
38264;SDS011;24062;47.480;8.768;2023-11-21T15:03:07;1.70;;;0.50;;
38264;SDS011;24062;47.480;8.768;2023-11-21T15:05:35;1.20;;;0.40;;
38264;SDS011;24062;47.480;8.768;2023-11-21T15:08:02;1.23;;;0.50;;
38264;SDS011;24062;47.480;8.768;2023-11-21T15:10:46;1.30;;;0.50;;
38264;SDS011;24062;47.480;8.768;2023-11-21T15:13:18;1.10;;;0.40;;
38264;SDS011;24062;47.480;8.768;2023-11-21T15:15:45;1.10;;;0.40;;
38264;SDS011;24062;47.480;8.768;2023-11-21T15:18:12;1.10;;;0.40;;
38264;SDS011;24062;47.480;8.768;2023-11-21T15:20:39;1.10;;;0.40;;
38264;SDS011;24062;47.480;8.768;2023-11-21T15:23:08;1.10;;;0.40;;
38264;SDS011;24062;47.480;8.768;2023-11-21T15:25:37;1.30;;;0.50;;
38264;SDS011;24062;47.480;8.768;2023-11-21T15:28:04;1.20;;;0.50;;
38264;SDS011;24062;47.480;8.768;2023-11-21T15:30:31;1.17;;;0.50;;
38264;SDS011;24062;47.480;8.768;2023-11-21T15:32:58;1.63;;;0.43;;
38264;SDS011;24062;47.480;8.768;2023-11-21T15:35:25;1.10;;;0.40;;
38264;SDS011;24062;47.480;8.768;2023-11-21T15:37:53;1.33;;;0.50;;
38264;SDS011;24062;47.480;8.768;2023-11-21T15:40:24;1.10;;;0.40;;